Time;durP1;ratioP1;P1;durP2;ratioP2;P2;SDS_P1;SDS_P2;PMS_P1;PMS_P2;Temp;Humidity;BMP_temperature;BMP_pressure;BME280_temperature;BME280_humidity;BME280_pressure;Samples;Min_cycle;Max_cycle;Signal;HPM_P1;HPM_P2
2021/03/18 00:01:52;;;;;;;7.47;4.60;;;;;;;1.69;75.38;96709.22;5030796;28;20125;-69
2021/03/18 00:04:19;;;;;;;9.23;5.07;;;;;;;1.71;75.24;96709.75;5031957;28;20064;-69
2021/03/18 00:06:47;;;;;;;9.05;4.60;;;;;;;1.72;75.29;96706.03;5031967;28;20465;-69
2021/03/18 00:09:15;;;;;;;9.63;4.60;;;;;;;1.73;75.19;96713.03;5031498;28;20045;-68
2021/03/18 00:11:43;;;;;;;8.13;4.47;;;;;;;1.71;75.22;96717.00;5032007;28;20045;-69
2021/03/18 00:14:10;;;;;;;8.95;5.35;;;;;;;1.65;75.17;96710.78;5031068;28;20059;-69
2021/03/18 00:16:37;;;;;;;7.78;5.03;;;;;;;1.61;75.21;96714.22;5032508;28;20099;-69
2021/03/18 00:19:04;;;;;;;11.05;5.45;;;;;;;1.58;75.37;96710.16;5030708;28;20052;-69
2021/03/18 00:21:30;;;;;;;10.35;5.65;;;;;;;1.54;75.45;96715.22;5032403;28;20045;-69
2021/03/18 00:23:56;;;;;;;12.35;5.15;;;;;;;1.53;75.39;96710.13;5031068;28;20053;-69
2021/03/18 00:26:23;;;;;;;10.30;5.15;;;;;;;1.51;75.49;96706.84;5031349;28;20088;-69
2021/03/18 00:28:51;;;;;;;9.75;5.10;;;;;;;1.53;75.59;96707.44;5031141;28;20053;-69
2021/03/18 00:31:19;;;;;;;11.40;5.38;;;;;;;1.50;75.42;96703.38;5031231;28;20057;-69
2021/03/18 00:33:46;;;;;;;8.82;5.03;;;;;;;1.48;75.44;96710.06;5031479;28;20049;-69
2021/03/18 00:36:12;;;;;;;9.77;5.10;;;;;;;1.44;75.41;96703.56;5031033;28;20049;-69
2021/03/18 00:38:37;;;;;;;10.18;5.70;;;;;;;1.41;75.46;96709.41;5031561;28;20524;-69
2021/03/18 00:41:06;;;;;;;8.63;5.00;;;;;;;1.33;75.36;96707.19;5030431;28;20045;-69
2021/03/18 00:43:33;;;;;;;9.73;5.95;;;;;;;1.29;75.57;96707.69;5031768;28;20499;-69
2021/03/18 00:45:59;;;;;;;10.60;5.65;;;;;;;1.26;75.70;96697.47;5030993;28;20504;-69
2021/03/18 00:48:26;;;;;;;11.73;5.68;;;;;;;1.24;75.85;96704.94;5031572;28;20095;-69
2021/03/18 00:50:54;;;;;;;11.00;5.53;;;;;;;1.23;75.87;96705.19;5030727;28;20045;-69
2021/03/18 00:53:23;;;;;;;9.60;5.20;;;;;;;1.20;76.04;96711.88;5028871;28;20057;-69
2021/03/18 00:55:49;;;;;;;9.60;5.40;;;;;;;1.18;76.24;96702.44;5031109;28;20068;-69
2021/03/18 00:58:15;;;;;;;10.38;5.63;;;;;;;1.12;76.30;96703.44;5043120;28;20682;-69
2021/03/18 01:00:43;;;;;;;12.10;7.05;;;;;;;1.16;76.55;96708.06;5051177;28;20447;-69
2021/03/18 01:03:11;;;;;;;9.98;5.70;;;;;;;1.19;76.54;96696.81;5050164;28;20111;-68
2021/03/18 01:05:40;;;;;;;10.13;6.55;;;;;;;1.22;76.62;96701.72;5051466;28;20621;-69
2021/03/18 01:08:07;;;;;;;11.00;5.72;;;;;;;1.28;76.76;96695.34;5049942;28;20057;-69
2021/03/18 01:10:36;;;;;;;10.68;6.75;;;;;;;1.33;76.69;96693.78;5051235;28;20435;-69
2021/03/18 01:13:03;;;;;;;10.65;5.90;;;;;;;1.30;76.16;96703.13;5049813;28;20048;-69
2021/03/18 01:15:29;;;;;;;10.52;5.90;;;;;;;1.31;76.28;96694.03;5050960;28;20416;-69
2021/03/18 01:17:55;;;;;;;10.25;5.63;;;;;;;1.30;76.11;96687.03;5050781;28;20056;-68
2021/03/18 01:20:23;;;;;;;9.73;5.38;;;;;;;1.30;76.13;96690.56;5050120;28;21272;-69
2021/03/18 01:22:49;;;;;;;9.57;5.82;;;;;;;1.34;75.99;96692.72;5050549;28;20056;-69
2021/03/18 01:25:15;;;;;;;8.68;5.63;;;;;;;1.38;76.17;96688.47;5049523;28;20052;-68
2021/03/18 01:27:41;;;;;;;9.52;5.50;;;;;;;1.40;76.02;96689.03;5050880;28;20114;-68
2021/03/18 01:30:11;;;;;;;9.40;5.70;;;;;;;1.44;76.01;96692.84;5049502;28;20045;-69
2021/03/18 01:32:38;;;;;;;11.20;5.55;;;;;;;1.45;75.86;96686.41;5050960;28;20400;-69
2021/03/18 01:35:08;;;;;;;10.70;5.72;;;;;;;1.45;75.69;96683.72;5049390;28;20056;-69
2021/03/18 01:37:35;;;;;;;13.82;6.72;;;;;;;1.45;75.76;96678.34;5050763;28;20381;-69
2021/03/18 01:40:01;;;;;;;9.88;5.78;;;;;;;1.46;75.63;96682.66;5050163;28;20503;-69
2021/03/18 01:42:27;;;;;;;10.55;5.82;;;;;;;1.45;75.36;96683.72;5050449;28;20033;-69
2021/03/18 01:44:53;;;;;;;10.48;5.65;;;;;;;1.44;75.25;96677.53;5050326;28;20041;-69
2021/03/18 01:47:19;;;;;;;12.45;5.90;;;;;;;1.40;74.94;96686.34;5049421;28;20408;-69
2021/03/18 01:49:45;;;;;;;11.82;6.28;;;;;;;1.34;74.56;96681.97;5050420;28;20511;-69
2021/03/18 01:52:11;;;;;;;11.88;6.10;;;;;;;1.23;74.41;96676.50;5048643;28;20136;-69
2021/03/18 01:54:37;;;;;;;12.75;6.55;;;;;;;1.19;74.41;96667.31;5050856;28;20143;-69
2021/03/18 01:57:04;;;;;;;15.60;7.05;;;;;;;1.19;74.47;96664.63;5049125;28;20044;-69
2021/03/18 01:59:30;;;;;;;14.35;6.85;;;;;;;1.17;74.69;96666.78;5050862;28;20049;-69
2021/03/18 02:01:56;;;;;;;12.20;6.07;;;;;;;1.13;74.87;96668.31;5049695;28;20053;-68
2021/03/18 02:04:22;;;;;;;15.02;7.50;;;;;;;1.12;74.98;96664.03;5050050;28;20057;-69
2021/03/18 02:06:48;;;;;;;16.63;7.28;;;;;;;1.11;75.00;96669.66;5050045;28;20044;-69
2021/03/18 02:09:14;;;;;;;12.88;6.68;;;;;;;1.08;75.26;96667.47;5049508;28;20045;-69
2021/03/18 02:11:41;;;;;;;13.63;6.57;;;;;;;1.07;75.48;96666.66;5050102;28;20083;-69
2021/03/18 02:14:07;;;;;;;14.45;7.10;;;;;;;1.09;75.54;96677.94;5049243;28;20075;-68
2021/03/18 02:16:38;;;;;;;13.75;7.15;;;;;;;1.09;75.47;96664.50;5050528;28;20614;-68
2021/03/18 02:19:34;;;;;;;16.92;7.55;;;;;;;1.09;75.57;96675.25;5048998;28;20041;-68
2021/03/18 02:22:37;;;;;;;14.98;7.13;;;;;;;1.07;75.38;96672.00;5049956;28;20492;-69
2021/03/18 02:25:10;;;;;;;17.85;7.55;;;;;;;1.09;75.46;96674.44;5030813;28;20041;-68
2021/03/18 02:28:15;;;;;;;16.10;7.95;;;;;;;1.12;75.52;96673.94;5032871;28;20060;-69
2021/03/18 02:30:52;;;;;;;18.55;7.82;;;;;;;1.13;75.38;96668.31;5034246;28;20041;-69
2021/03/18 02:34:01;;;;;;;23.55;8.20;;;;;;;1.17;75.37;96669.44;5032973;28;20052;-69
2021/03/18 02:36:35;;;;;;;18.45;7.78;;;;;;;1.15;75.24;96666.22;5033235;28;20168;-69
2021/03/18 02:39:05;;;;;;;16.80;8.43;;;;;;;1.14;75.11;96667.25;5034494;28;20527;-69
2021/03/18 02:41:34;;;;;;;18.25;8.70;;;;;;;1.14;74.99;96669.13;5032604;28;20034;-69
2021/03/18 02:44:09;;;;;;;20.67;9.20;;;;;;;1.14;74.80;96677.19;5034197;28;20737;-69
2021/03/18 02:46:38;;;;;;;19.77;8.20;;;;;;;1.12;74.85;96673.94;5033115;28;20051;-68
2021/03/18 02:49:07;;;;;;;18.33;8.80;;;;;;;1.06;74.73;96673.06;5033317;28;20053;-68
2021/03/18 02:51:35;;;;;;;21.38;9.35;;;;;;;1.00;74.80;96682.13;5033012;28;20099;-69
2021/03/18 02:54:05;;;;;;;23.05;9.73;;;;;;;0.94;74.91;96677.72;5033271;28;20049;-69
2021/03/18 02:56:32;;;;;;;20.90;9.55;;;;;;;0.92;75.08;96680.66;5033775;28;20400;-69
2021/03/18 02:59:02;;;;;;;21.35;9.85;;;;;;;0.86;75.02;96675.50;5032636;28;20052;-68
2021/03/18 03:01:29;;;;;;;23.15;10.07;;;;;;;0.78;74.85;96682.91;5033698;28;20404;-68
2021/03/18 03:03:56;;;;;;;20.80;9.60;;;;;;;0.77;74.93;96686.63;5032719;28;20535;-68
2021/03/18 03:06:24;;;;;;;21.08;10.10;;;;;;;0.82;75.28;96677.84;5033146;28;20416;-68
2021/03/18 03:08:52;;;;;;;22.48;10.50;;;;;;;0.85;75.31;96676.56;5033168;28;20049;-68
2021/03/18 03:11:21;;;;;;;23.48;10.63;;;;;;;0.90;75.43;96682.81;5032519;28;20049;-69
2021/03/18 03:13:48;;;;;;;28.50;11.40;;;;;;;0.91;75.38;96687.09;5033099;28;20045;-68
2021/03/18 03:16:17;;;;;;;21.63;10.48;;;;;;;0.87;75.09;96688.66;5032381;28;20042;-68
2021/03/18 03:18:44;;;;;;;24.08;10.95;;;;;;;0.87;75.01;96688.66;5033567;28;20050;-68
2021/03/18 03:21:12;;;;;;;24.23;10.90;;;;;;;0.87;75.19;96690.53;5031954;28;20057;-68
2021/03/18 03:23:38;;;;;;;26.05;10.73;;;;;;;0.83;74.89;96692.06;5065260;28;20040;-68
2021/03/18 03:26:06;;;;;;;23.00;10.65;;;;;;;0.87;74.90;96695.88;5071856;28;20041;-68
2021/03/18 03:28:35;;;;;;;25.63;11.27;;;;;;;0.84;74.79;96696.41;5057329;28;20045;-68
2021/03/18 03:31:01;;;;;;;25.02;11.70;;;;;;;0.91;75.00;96705.06;5052463;28;20391;-69
2021/03/18 03:33:28;;;;;;;20.25;10.40;;;;;;;0.94;74.91;96699.19;5052265;28;20412;-68
2021/03/18 03:35:55;;;;;;;23.83;11.32;;;;;;;0.98;74.94;96697.63;5052402;28;20048;-68
2021/03/18 03:38:21;;;;;;;22.90;10.80;;;;;;;1.00;74.81;96703.56;5051039;28;20045;-68
2021/03/18 03:40:47;;;;;;;23.65;11.45;;;;;;;0.98;75.02;96700.31;5053013;28;20051;-68
2021/03/18 03:43:14;;;;;;;21.48;10.30;;;;;;;1.04;75.11;96704.69;5052505;28;20053;-68
2021/03/18 03:45:41;;;;;;;27.42;11.90;;;;;;;1.09;75.11;96707.44;5053098;28;20048;-69
2021/03/18 03:48:07;;;;;;;21.75;11.27;;;;;;;1.13;75.23;96711.25;5051331;28;20049;-68
2021/03/18 03:50:35;;;;;;;27.98;11.48;;;;;;;1.08;75.10;96715.72;5050446;28;20055;-68
2021/03/18 03:53:09;;;;;;;27.00;11.18;;;;;;;1.06;74.86;96718.66;5051418;28;20435;-70
2021/03/18 03:55:45;;;;;;;27.92;12.50;;;;;;;1.03;74.86;96719.16;5052469;28;20071;-68
2021/03/18 03:58:27;;;;;;;25.25;12.00;;;;;;;1.03;74.61;96716.47;5051752;28;20558;-68
2021/03/18 04:00:54;;;;;;;27.35;12.30;;;;;;;1.05;74.76;96725.09;5052790;28;20507;-68
2021/03/18 04:03:22;;;;;;;28.20;12.65;;;;;;;1.09;74.81;96718.16;5052222;28;20056;-68
2021/03/18 04:05:50;;;;;;;27.83;11.68;;;;;;;1.02;74.84;96717.53;5051528;28;20094;-68
2021/03/18 04:08:17;;;;;;;27.75;12.52;;;;;;;1.04;74.82;96713.56;5052395;28;20075;-69
2021/03/18 04:10:44;;;;;;;27.00;12.10;;;;;;;1.04;74.61;96715.41;5051025;28;20045;-68
2021/03/18 04:13:12;;;;;;;28.13;12.40;;;;;;;1.04;74.75;96715.41;5051509;28;20442;-68
2021/03/18 04:15:40;;;;;;;26.27;11.70;;;;;;;1.07;74.61;96714.91;5051480;28;20049;-68
2021/03/18 04:18:07;;;;;;;26.13;12.82;;;;;;;1.12;74.71;96714.19;5051100;28;20045;-68
2021/03/18 04:20:37;;;;;;;27.23;12.45;;;;;;;1.09;74.76;96718.16;5051887;28;20447;-68
2021/03/18 04:23:07;;;;;;;25.92;12.23;;;;;;;1.06;74.76;96717.88;5050995;28;20053;-69
2021/03/18 04:25:33;;;;;;;26.65;12.63;;;;;;;1.03;74.75;96719.16;5052489;28;20041;-68
2021/03/18 04:28:00;;;;;;;24.52;11.82;;;;;;;1.01;74.68;96715.91;5050813;28;20083;-68
2021/03/18 04:30:28;;;;;;;23.50;12.35;;;;;;;1.01;74.64;96723.97;5051725;28;20079;-68
2021/03/18 04:32:56;;;;;;;29.23;12.65;;;;;;;1.01;74.78;96721.28;5050869;28;20049;-68
2021/03/18 04:35:24;;;;;;;28.15;12.32;;;;;;;1.02;75.11;96728.25;5051452;28;20045;-68
2021/03/18 04:37:51;;;;;;;29.20;13.25;;;;;;;1.03;75.13;96722.66;5051165;28;20095;-68
2021/03/18 04:40:20;;;;;;;26.25;12.52;;;;;;;0.94;74.64;96723.31;5050793;28;20186;-68
2021/03/18 04:42:47;;;;;;;28.33;13.05;;;;;;;0.92;75.01;96723.56;5051585;28;20047;-68
2021/03/18 04:45:13;;;;;;;27.52;12.70;;;;;;;0.94;75.05;96726.84;5050549;28;20072;-68
2021/03/18 04:47:42;;;;;;;27.85;13.23;;;;;;;0.95;74.90;96724.97;5051298;28;20049;-68
2021/03/18 04:50:11;;;;;;;29.10;13.32;;;;;;;0.98;74.88;96727.13;5050058;28;20102;-68
2021/03/18 04:52:39;;;;;;;27.65;12.32;;;;;;;1.01;75.07;96732.81;5051777;28;20652;-68
2021/03/18 04:55:06;;;;;;;27.02;12.57;;;;;;;1.01;75.13;96730.13;5050216;28;20139;-69
2021/03/18 04:57:33;;;;;;;27.38;13.38;;;;;;;1.02;74.87;96722.91;5051302;28;20048;-68
2021/03/18 05:00:00;;;;;;;25.42;12.55;;;;;;;0.95;74.63;96724.97;5050969;28;20044;-68
2021/03/18 05:02:28;;;;;;;27.38;12.80;;;;;;;0.99;74.91;96723.38;5050639;28;20037;-68
2021/03/18 05:04:55;;;;;;;28.25;13.20;;;;;;;0.98;74.81;96724.44;5051216;28;20091;-68
2021/03/18 05:07:23;;;;;;;25.63;12.85;;;;;;;0.98;74.59;96724.44;5050022;28;20052;-68
2021/03/18 05:09:50;;;;;;;27.45;12.50;;;;;;;1.03;74.72;96719.16;5051296;28;20044;-67
2021/03/18 05:12:16;;;;;;;27.27;12.85;;;;;;;1.02;74.75;96728.25;5049675;28;20049;-68
2021/03/18 05:14:42;;;;;;;32.38;13.60;;;;;;;1.04;74.75;96723.44;5051204;28;20492;-68
2021/03/18 05:17:08;;;;;;;31.80;13.77;;;;;;;1.03;74.87;96725.31;5049753;28;20048;-68
2021/03/18 05:19:34;;;;;;;27.85;12.70;;;;;;;1.09;75.03;96722.72;5050939;28;20041;-68
2021/03/18 05:22:00;;;;;;;26.02;12.95;;;;;;;1.04;75.08;96726.13;5050506;28;20049;-68
2021/03/18 05:24:28;;;;;;;25.83;13.18;;;;;;;1.08;75.04;96726.47;5050446;28;20033;-68
2021/03/18 05:26:55;;;;;;;29.55;13.30;;;;;;;1.02;74.97;96728.25;5050496;28;20049;-69
2021/03/18 05:29:21;;;;;;;26.20;12.77;;;;;;;1.02;75.38;96728.25;5049744;28;20048;-68
2021/03/18 05:31:47;;;;;;;29.20;13.63;;;;;;;1.01;75.35;96726.66;5050841;28;20044;-68
2021/03/18 05:34:13;;;;;;;27.50;13.88;;;;;;;1.01;75.62;96732.81;5049455;28;20049;-68
2021/03/18 05:36:41;;;;;;;28.45;13.80;;;;;;;1.04;75.78;96737.69;5050922;28;20040;-68
2021/03/18 05:39:07;;;;;;;29.55;13.68;;;;;;;1.07;75.73;96736.38;5049152;28;20056;-68
2021/03/18 05:41:35;;;;;;;27.45;12.98;;;;;;;1.06;75.70;96734.75;5050864;28;20041;-68
2021/03/18 05:44:05;;;;;;;26.55;13.73;;;;;;;1.06;75.91;96740.13;5049637;28;20098;-68
2021/03/18 05:46:32;;;;;;;28.63;13.93;;;;;;;1.07;76.11;96731.00;5050483;28;20052;-68
2021/03/18 05:48:59;;;;;;;28.20;13.10;;;;;;;1.09;75.98;96734.25;5049935;28;20064;-68
2021/03/18 05:51:26;;;;;;;25.42;12.95;;;;;;;1.11;76.03;96737.50;5049741;28;20044;-68
2021/03/18 05:53:53;;;;;;;31.13;14.02;;;;;;;1.15;75.94;96737.81;5050489;28;20044;-68
2021/03/18 05:56:21;;;;;;;28.38;13.95;;;;;;;1.18;76.02;96732.75;5050171;28;20099;-68
2021/03/18 05:58:49;;;;;;;29.90;14.25;;;;;;;1.14;75.95;96736.19;5050631;28;20095;-68
2021/03/18 06:01:16;;;;;;;33.25;14.85;;;;;;;1.14;75.95;96734.31;5048164;28;20048;-68
2021/03/18 06:03:43;;;;;;;34.95;14.25;;;;;;;1.11;76.67;96732.16;5050669;28;20531;-68
2021/03/18 06:06:10;;;;;;;31.35;14.25;;;;;;;1.09;76.79;96736.94;5048972;28;20048;-68
2021/03/18 06:08:37;;;;;;;29.42;13.70;;;;;;;1.07;76.63;96736.38;5050309;28;20037;-68
2021/03/18 06:11:05;;;;;;;31.45;15.00;;;;;;;1.08;76.98;96738.00;5049156;28;20492;-68
2021/03/18 06:13:31;;;;;;;30.00;13.32;;;;;;;1.13;77.07;96739.94;5049656;28;20083;-68
2021/03/18 06:15:58;;;;;;;31.02;13.52;;;;;;;1.14;76.87;96741.56;5049856;28;20049;-69
2021/03/18 06:18:24;;;;;;;31.38;13.52;;;;;;;1.13;76.88;96735.38;5049036;28;20049;-68
2021/03/18 06:20:52;;;;;;;30.92;14.57;;;;;;;1.09;76.68;96736.94;5049978;28;20412;-68
2021/03/18 06:23:20;;;;;;;31.40;14.57;;;;;;;1.13;76.84;96737.25;5049224;28;20497;-68
2021/03/18 06:25:47;;;;;;;32.13;14.75;;;;;;;1.13;76.96;96735.38;5050571;28;20094;-68
2021/03/18 06:28:19;;;;;;;29.13;14.10;;;;;;;1.16;77.31;96739.44;5048497;28;20057;-68
2021/03/18 06:30:59;;;;;;;29.05;14.88;;;;;;;1.19;77.26;96737.06;5050152;28;20064;-68
2021/03/18 06:33:27;;;;;;;29.80;14.40;;;;;;;1.24;76.93;96737.13;5049376;28;20044;-68
2021/03/18 06:35:55;;;;;;;27.92;13.18;;;;;;;1.11;76.13;96739.38;5049884;28;20044;-68
2021/03/18 06:38:27;;;;;;;30.05;14.80;;;;;;;1.09;76.53;96734.25;5049432;28;20053;-68
2021/03/18 06:40:53;;;;;;;31.73;14.77;;;;;;;1.13;76.43;96735.38;5049016;28;20037;-68
2021/03/18 06:43:34;;;;;;;35.05;14.93;;;;;;;0.99;76.28;96734.09;5049851;28;20049;-68
2021/03/18 06:46:17;;;;;;;33.20;14.75;;;;;;;0.97;76.43;96725.50;5049257;28;20055;-68
2021/03/18 06:48:44;;;;;;;30.50;14.50;;;;;;;0.94;76.88;96731.34;5049936;28;20683;-68
2021/03/18 06:51:18;;;;;;;32.17;15.57;;;;;;;0.97;77.00;96730.88;5048929;28;20056;-68
2021/03/18 06:53:44;;;;;;;35.47;16.00;;;;;;;1.02;77.43;96733.63;5029281;28;20057;-69
2021/03/18 06:56:28;;;;;;;36.50;16.60;;;;;;;1.13;77.80;96740.75;5029606;28;20049;-78
2021/03/18 06:58:55;;;;;;;31.42;15.52;;;;;;;1.22;77.83;96750.00;5047307;28;20057;-73
2021/03/18 07:01:27;;;;;;;38.15;16.42;;;;;;;1.29;77.99;96745.25;5049256;28;20053;-73
2021/03/18 07:04:01;;;;;;;33.45;16.38;;;;;;;1.35;77.72;96748.00;5048671;28;20057;-73
2021/03/18 07:06:30;;;;;;;33.78;14.85;;;;;;;1.40;77.09;96751.53;5049631;28;20041;-73
2021/03/18 07:09:07;;;;;;;34.10;15.98;;;;;;;1.46;76.93;96744.38;5049166;28;20424;-73
2021/03/18 07:11:38;;;;;;;31.77;14.85;;;;;;;1.55;76.50;96749.03;5050784;28;20480;-73
2021/03/18 07:14:05;;;;;;;31.70;15.13;;;;;;;1.74;76.77;96746.84;5052543;28;20056;-73
2021/03/18 07:16:44;;;;;;;38.60;16.98;;;;;;;1.99;76.39;96743.63;5052039;28;20106;-73
2021/03/18 07:19:20;;;;;;;27.95;14.40;;;;;;;2.17;75.89;96745.13;5053024;28;20094;-73
2021/03/18 07:21:46;;;;;;;28.50;13.52;;;;;;;2.23;74.58;96749.47;5050942;28;20385;-75
2021/03/18 07:24:25;;;;;;;29.20;14.55;;;;;;;2.14;73.20;96742.13;5052690;28;20037;-73
2021/03/18 07:26:53;;;;;;;30.48;15.95;;;;;;;2.46;73.18;96750.22;5052159;28;20102;-73
2021/03/18 07:29:21;;;;;;;25.27;13.43;;;;;;;3.02;71.54;96739.84;5049597;28;20049;-73
2021/03/18 07:31:49;;;;;;;28.58;14.25;;;;;;;3.63;69.51;96740.16;5052952;28;20404;-73
2021/03/18 07:34:16;;;;;;;27.45;14.85;;;;;;;3.61;68.99;96736.91;5051658;28;20079;-73
2021/03/18 07:36:42;;;;;;;27.40;13.50;;;;;;;3.63;69.56;96735.56;5053521;28;20079;-74
2021/03/18 07:39:09;;;;;;;31.42;14.88;;;;;;;3.63;69.30;96734.75;5051320;28;20488;-73
2021/03/18 07:41:36;;;;;;;27.50;15.15;;;;;;;3.57;69.29;96730.44;5053236;28;20049;-74
2021/03/18 07:44:03;;;;;;;28.38;15.48;;;;;;;3.68;68.44;96732.09;5051431;28;20076;-73
2021/03/18 07:46:31;;;;;;;27.35;14.65;;;;;;;3.58;67.48;96738.25;5052531;28;20049;-74
2021/03/18 07:49:01;;;;;;;29.30;14.85;;;;;;;3.25;67.86;96738.66;5052183;28;20052;-74
2021/03/18 07:51:29;;;;;;;25.38;14.02;;;;;;;3.02;68.47;96734.47;5065023;28;20068;-73
2021/03/18 07:53:58;;;;;;;30.27;15.95;;;;;;;2.76;68.98;96742.38;5052347;28;20045;-74
2021/03/18 07:56:25;;;;;;;30.75;16.05;;;;;;;2.94;70.37;96729.59;5051357;28;20041;-73
2021/03/18 07:58:52;;;;;;;28.27;14.63;;;;;;;3.26;69.48;96735.69;5052716;28;20046;-73
2021/03/18 08:01:39;;;;;;;28.20;15.05;;;;;;;3.34;68.73;96726.28;5051031;28;20506;-73
2021/03/18 08:04:08;;;;;;;28.30;14.75;;;;;;;3.26;68.45;96730.31;5052062;28;20045;-73
2021/03/18 08:06:52;;;;;;;34.83;16.10;;;;;;;3.54;67.65;96722.88;5051628;28;20044;-73
2021/03/18 08:09:50;;;;;;;30.63;16.75;;;;;;;4.45;66.55;96724.94;5051457;28;20091;-74
2021/03/18 08:12:16;;;;;;;24.77;13.82;;;;;;;4.89;64.06;96727.06;5051914;28;20075;-74
2021/03/18 08:14:42;;;;;;;25.98;14.07;;;;;;;4.94;62.54;96722.47;5051420;28;20045;-73
2021/03/18 08:17:27;;;;;;;26.55;14.85;;;;;;;4.89;63.80;96725.19;5051688;28;20041;-73
2021/03/18 08:19:54;;;;;;;27.98;14.85;;;;;;;4.68;63.02;96724.38;5054486;28;20044;-73
2021/03/18 08:22:28;;;;;;;29.35;15.18;;;;;;;4.75;63.66;96728.69;5061131;28;20051;-73
2021/03/18 08:24:54;;;;;;;25.23;14.02;;;;;;;4.58;63.12;96727.09;5051874;28;20041;-73
2021/03/18 08:27:28;;;;;;;24.23;13.45;;;;;;;4.27;63.13;96723.56;5050234;28;20049;-73
2021/03/18 08:29:54;;;;;;;24.95;14.43;;;;;;;4.35;65.27;96720.34;5052431;28;20055;-73
2021/03/18 08:32:27;;;;;;;23.52;13.30;;;;;;;5.39;66.07;96722.63;5050426;28;20060;-73
2021/03/18 08:34:55;;;;;;;29.92;13.63;;;;;;;6.09;61.25;96715.28;5052320;28;20451;-73
2021/03/18 08:37:33;;;;;;;27.35;13.73;;;;;;;6.61;58.73;96721.13;5050355;28;20048;-74
2021/03/18 08:40:00;;;;;;;23.27;13.05;;;;;;;6.96;56.24;96723.53;5051512;28;20049;-73
2021/03/18 08:42:41;;;;;;;22.40;12.32;;;;;;;7.49;55.79;96714.56;5050950;28;20115;-74
2021/03/18 08:45:10;;;;;;;27.00;13.00;;;;;;;7.50;55.61;96719.69;5050767;28;20052;-73
2021/03/18 08:47:39;;;;;;;21.42;11.93;;;;;;;7.12;55.39;96716.06;5051554;28;20506;-73
2021/03/18 08:50:10;;;;;;;28.08;13.35;;;;;;;6.69;56.93;96718.63;5049005;28;20052;-73
2021/03/18 08:52:38;;;;;;;26.15;13.55;;;;;;;6.09;57.22;96719.88;5063837;28;20055;-73
2021/03/18 08:55:06;;;;;;;26.55;13.65;;;;;;;5.76;59.30;96722.22;5070184;28;20526;-73
2021/03/18 08:57:33;;;;;;;24.23;13.45;;;;;;;5.36;59.07;96723.97;5064098;28;20045;-73
2021/03/18 09:00:07;;;;;;;24.98;13.70;;;;;;;5.08;59.84;96716.53;5050918;28;20048;-73
2021/03/18 09:02:34;;;;;;;26.88;13.88;;;;;;;5.85;62.24;96715.13;5050951;28;20048;-73
2021/03/18 09:05:03;;;;;;;22.45;12.20;;;;;;;6.60;57.86;96725.75;5051059;28;20061;-72
2021/03/18 09:07:32;;;;;;;21.95;12.02;;;;;;;7.04;56.71;96720.19;5050377;28;20047;-72
2021/03/18 09:10:17;;;;;;;20.67;12.07;;;;;;;7.30;52.72;96711.78;5051648;28;20045;-73
2021/03/18 09:12:46;;;;;;;21.38;11.15;;;;;;;6.73;54.08;96716.16;5050053;28;20123;-73
2021/03/18 09:15:25;;;;;;;20.83;12.07;;;;;;;6.17;55.00;96709.28;5050616;28;20408;-75
2021/03/18 09:17:53;;;;;;;22.58;12.40;;;;;;;5.82;56.69;96710.28;5050513;28;20420;-75
2021/03/18 09:20:22;;;;;;;22.45;11.75;;;;;;;5.81;58.86;96708.66;5056616;28;20048;-72
2021/03/18 09:22:49;;;;;;;21.75;11.32;;;;;;;5.63;57.76;96701.19;5057139;28;20041;-74
2021/03/18 09:25:16;;;;;;;23.42;12.68;;;;;;;5.38;57.16;96713.72;5049813;28;20061;-74
2021/03/18 09:27:43;;;;;;;22.67;12.50;;;;;;;5.21;58.48;96705.94;5050678;28;20447;-72
2021/03/18 09:30:29;;;;;;;24.23;12.75;;;;;;;5.07;60.11;96706.81;5049544;28;20071;-75
2021/03/18 09:32:56;;;;;;;23.20;12.93;;;;;;;4.93;59.51;96710.06;5050968;28;20059;-75
2021/03/18 09:35:23;;;;;;;26.15;12.60;;;;;;;4.72;60.22;96711.19;5048685;28;20424;-74
2021/03/18 09:37:51;;;;;;;24.23;12.60;;;;;;;4.58;60.49;96704.72;5050708;28;20443;-74
2021/03/18 09:40:18;;;;;;;23.42;12.32;;;;;;;4.37;61.26;96706.59;5050010;28;20163;-74
2021/03/18 09:42:45;;;;;;;21.02;11.90;;;;;;;4.38;61.70;96703.63;5050174;28;20052;-74
2021/03/18 09:45:19;;;;;;;24.42;12.23;;;;;;;4.32;61.41;96699.31;5050251;28;20040;-74
2021/03/18 09:47:49;;;;;;;;;;;;;;;4.43;63.68;96698.22;5050258;28;20511;-74
2021/03/18 09:50:15;;;;;;;24.30;11.52;;;;;;;4.58;61.94;96691.22;5056478;28;19926;-73
2021/03/18 09:52:41;;;;;;;20.50;11.57;;;;;;;4.67;60.54;96684.22;5056641;28;20041;-74
2021/03/18 09:55:13;;;;;;;25.50;12.10;;;;;;;5.16;61.43;96683.53;5050331;28;20053;-74
2021/03/18 09:57:39;;;;;;;22.88;10.60;;;;;;;5.94;61.12;96678.34;5049803;28;20052;-74
2021/03/18 10:00:08;;;;;;;20.45;10.02;;;;;;;6.59;59.92;96672.72;5049905;28;20064;-74
2021/03/18 10:02:34;;;;;;;19.15;10.77;;;;;;;6.98;58.71;96678.00;5049531;28;20052;-73
2021/03/18 10:05:00;;;;;;;21.48;11.52;;;;;;;6.75;57.25;96673.38;5047253;28;20049;-74
2021/03/18 10:07:29;;;;;;;25.55;13.48;;;;;;;6.45;57.50;96680.66;5047114;28;20056;-73
2021/03/18 10:09:55;;;;;;;22.25;12.57;;;;;;;6.14;57.95;96679.28;5046828;28;20056;-71
2021/03/18 10:12:25;;;;;;;21.33;11.65;;;;;;;5.55;58.33;96675.56;5047117;28;20052;-71
2021/03/18 10:14:55;;;;;;;19.83;12.07;;;;;;;4.52;62.38;96681.53;5046346;28;20080;-74
2021/03/18 10:17:26;;;;;;;22.15;11.82;;;;;;;4.08;64.39;96665.91;5046905;28;21135;-73
2021/03/18 10:19:58;;;;;;;21.58;10.45;;;;;;;3.84;65.27;96670.97;5049325;28;20057;-74
2021/03/18 10:22:29;;;;;;;15.43;8.15;;;;;;;3.56;65.06;96665.00;5056341;28;20041;-74
2021/03/18 10:25:01;;;;;;;17.30;9.25;;;;;;;3.48;65.93;96660.13;5047558;28;20068;-74
2021/03/18 10:27:32;;;;;;;18.25;9.38;;;;;;;3.42;67.10;96655.00;5045756;28;20051;-73
2021/03/18 10:30:07;;;;;;;17.40;8.93;;;;;;;3.49;66.94;96658.25;5044846;28;20052;-74
2021/03/18 10:32:34;;;;;;;18.85;10.23;;;;;;;3.59;67.94;96648.31;5045487;28;20055;-74
2021/03/18 10:35:01;;;;;;;18.30;10.50;;;;;;;3.91;67.80;96650.81;5047070;28;20744;-74
2021/03/18 10:37:32;;;;;;;21.30;10.43;;;;;;;4.17;67.87;96648.91;5046147;28;20049;-74
2021/03/18 10:40:21;;;;;;;17.38;9.20;;;;;;;4.00;65.28;96652.94;5046922;28;20056;-74
2021/03/18 10:42:50;;;;;;;18.27;10.27;;;;;;;3.56;67.19;96650.75;5046475;28;20128;-74
2021/03/18 10:45:19;;;;;;;21.05;10.52;;;;;;;3.29;67.51;96659.81;5045902;28;20128;-74
2021/03/18 10:47:47;;;;;;;23.30;11.63;;;;;;;3.07;67.59;96651.09;5050660;28;20045;-74
2021/03/18 10:50:16;;;;;;;24.90;13.45;;;;;;;2.63;70.77;96648.72;5055255;28;20422;-75
2021/03/18 10:52:52;;;;;;;21.08;11.23;;;;;;;2.43;71.13;96652.09;5057444;28;20055;-75
2021/03/18 10:55:22;;;;;;;19.38;11.18;;;;;;;2.21;71.28;96652.22;5049451;28;20053;-74
2021/03/18 10:57:57;;;;;;;19.08;10.10;;;;;;;2.21;71.69;96654.91;5050148;28;20053;-74
2021/03/18 11:00:25;;;;;;;17.65;9.75;;;;;;;2.19;70.88;96648.94;5049011;28;20052;-74
2021/03/18 11:03:03;;;;;;;19.65;10.73;;;;;;;2.23;71.07;96636.63;5049623;28;20045;-74
2021/03/18 11:05:31;;;;;;;22.27;10.55;;;;;;;2.40;71.82;96641.03;5050153;28;20045;-74
2021/03/18 11:07:57;;;;;;;19.83;11.02;;;;;;;2.46;71.83;96640.84;5049384;28;20056;-75
2021/03/18 11:10:30;;;;;;;24.55;12.15;;;;;;;2.58;72.24;96629.88;5049964;28;20806;-74
2021/03/18 11:12:59;;;;;;;20.73;10.77;;;;;;;2.70;71.18;96630.47;5049069;28;20045;-74
2021/03/18 11:15:25;;;;;;;25.02;12.02;;;;;;;2.73;71.31;96626.47;5048187;28;20613;-74
2021/03/18 11:18:05;;;;;;;22.13;11.82;;;;;;;2.85;71.01;96622.50;5049348;28;20581;-74
2021/03/18 11:20:34;;;;;;;20.42;10.98;;;;;;;3.08;71.85;96625.81;5057591;28;20049;-74
2021/03/18 11:23:00;;;;;;;18.50;10.43;;;;;;;3.32;71.98;96621.59;5054581;28;20103;-74
2021/03/18 11:25:27;;;;;;;16.52;9.65;;;;;;;3.46;69.53;96621.09;5048841;28;20114;-74
2021/03/18 11:27:53;;;;;;;19.10;9.40;;;;;;;3.30;68.67;96636.41;5049953;28;20052;-75
2021/03/18 11:30:29;;;;;;;11.95;6.03;;;;;;;3.07;69.88;96633.06;5048465;28;20049;-74
2021/03/18 11:33:15;;;;;;;11.55;5.40;;;;;;;2.57;70.46;96636.34;5049543;28;20064;-75
2021/03/18 11:35:42;;;;;;;11.90;5.45;;;;;;;2.21;71.58;96632.59;5049001;28;20051;-75
2021/03/18 11:38:08;;;;;;;16.02;6.60;;;;;;;2.08;73.13;96623.09;5049367;28;20056;-74
2021/03/18 11:40:34;;;;;;;11.50;6.47;;;;;;;2.00;74.20;96618.19;5049735;28;20095;-75